Abeytas, New Mexico
Current Conditions -  °F | °C
As of 1:55 PM on Thursday 20 Nov 2014 (Local Time) from KE80 Reporting Station
Clear Clear  
Wind Chill: 56°   Ceiling: Unl
Heat Index: 56°   Visibility: 10mi
Dew Point: 11°   Wind: 5mph
Humidity: 17%   Direction: 80°E
Pressure: 30.03"   Gusts: NA
Location:  34.4828°N, 106.804°W
Report Text: KE80 202055Z AUTO 08004KT 10SM CLR 13/M11 A3003 RMK AO2 T01331115
Loading
Personal Weather Stations






























Interactive Weather Map New forecast layout! Learn more

10-Day Weather Forecast

Advertisements
Track Severe Weather on mobile